Skip Navigation Links
NOAA logo - Click to go to the NOAA homepage
NOAA's National Weather Service
Alaska Aviation Weather Unit
  NWS logo - Click to go to the NWS homepage
Left Navbar Graphic     10 AKDT = 18 GMT

   
NOAA is celebrating 200 years of science, service, and stewardship. Visit the NOAA 200th celebration Web site to learn more.
USA.gov is the U.S. Government's official Web portal to all Federal, state and local government Web resources and services.
Facebook
NWS on Facebook

Important Change Regarding the AAWU Web Presence

 

Over the last several months, the AAWU has been working to navigate its webpages to a nationally supported server. Security, as well as other needs, have necessitated the change.  We have been given an extension for the site changeover while we diligently work at addressing feedback received. As of July 14, 2017, aawu.arh.noaa.gov will be discontinued. The new AAWU web address is weather.gov/aawu. It is now live and will run in-parallel with the old site until it is discontinued on July 14, 2017. Please continue to send any feedback or questions regarding the new webpages to nws.ar.aawu.webauthors@noaa.gov.  Thank you for your patience during this time of transition.
AAWU Home :: Display TAF Add Bookmark
PANN 261239Z AUTO 34003KT 10SM FEW020 BKN049 OVC075 06/05 A2984=

METAR PANN 261253Z AUTO 33004KT 10SM FEW021 BKN049 OVC075 06/05 A2984
     RMK AO2 SLP114 T00560050 TSNO=

METAR PANN 261353Z AUTO 33006KT 10SM OVC040 05/04 A2985 RMK AO2 SLP114
     T00500044 TSNO=

METAR PANN 261453Z AUTO 32006KT 10SM BKN055 OVC070 04/04 A2985 RMK AO2
     SLP114 T00440044 51002 TSNO=

PANN 261540Z AUTO VRB03KT 10SM FEW006 BKN055 OVC090 04/04 A2985=

METAR PANN 261553Z AUTO 32003KT 10SM FEW006 BKN075 OVC090 04/04 A2986
     RMK AO2 SLP118 T00440039 TSNO=

METAR PANN 261653Z AUTO 00000KT 10SM FEW050 OVC080 04/04 A2986 RMK AO2
     SLP120 T00440044 TSNO=

PANN 261748Z AUTO 31004KT 10SM BKN010 OVC055 05/04 A2987=

METAR PANN 261753Z AUTO 32003KT 10SM BKN010 OVC055 05/04 A2987 RMK AO2
     SLP121 T00500044 10056 20044 51003 TSNO=


NOAA's National Weather Service
Alaska Aviation Weather Unit
6930 Sand Lake Road
Anchorage, AK 99502-1845
Disclaimer
Credits
Glossary
Privacy Policy
About Us
Career Opportunities
Contact AAWU Internet Services Site last modified: April, 17th 2012